createdAt,value
2019-04-26T00:01:00.647Z,84.70
2019-04-26T00:03:06.505Z,85.20
2019-04-26T00:05:11.099Z,84.30
2019-04-26T00:07:16.608Z,84.90
2019-04-26T00:09:34.296Z,84.30
2019-04-26T00:11:46.019Z,85.10
2019-04-26T00:14:07.766Z,85.20
2019-04-26T00:16:26.108Z,85.10
2019-04-26T00:18:29.936Z,86.10
2019-04-26T00:20:34.277Z,86.70
2019-04-26T00:22:38.287Z,86.10
2019-04-26T00:24:42.268Z,86.20
2019-04-26T00:26:46.174Z,85.50
2019-04-26T00:28:50.107Z,86.10
2019-04-26T00:30:54.083Z,86.00
2019-04-26T00:32:58.199Z,86.40
2019-04-26T00:35:02.209Z,86.10
2019-04-26T00:37:06.216Z,86.60
2019-04-26T00:39:10.096Z,85.90
2019-04-26T00:41:14.402Z,86.10
2019-04-26T00:43:18.608Z,86.60
2019-04-26T00:45:23.623Z,86.40
2019-04-26T00:47:28.544Z,87.50
2019-04-26T00:49:43.451Z,86.80
2019-04-26T00:51:41.095Z,86.40
2019-04-26T00:53:47.040Z,86.10
2019-04-26T00:55:55.183Z,86.00
2019-04-26T00:57:59.394Z,86.40
2019-04-26T01:00:04.912Z,86.10
2019-04-26T01:02:18.622Z,85.60
2019-04-26T01:04:23.000Z,85.20
2019-04-26T01:06:29.322Z,86.30
2019-04-26T01:08:33.246Z,85.60
2019-04-26T01:10:37.120Z,84.30
2019-04-26T01:12:41.587Z,84.00
2019-04-26T01:14:45.487Z,84.20
2019-04-26T01:16:49.392Z,84.70
2019-04-26T01:18:54.375Z,84.50
2019-04-26T01:21:00.819Z,84.90
2019-04-26T01:23:07.250Z,84.70
2019-04-26T01:25:39.573Z,84.80
2019-04-26T01:27:43.526Z,84.90
2019-04-26T01:29:49.618Z,85.10
2019-04-26T01:32:07.719Z,85.40
2019-04-26T01:34:12.031Z,85.60
2019-04-26T01:36:18.240Z,85.40
2019-04-26T01:38:23.703Z,85.10
2019-04-26T01:40:29.322Z,85.60
2019-04-26T01:42:52.512Z,86.00
2019-04-26T01:45:05.965Z,86.40
2019-04-26T01:47:09.963Z,87.50
2019-04-26T01:49:15.535Z,87.90
2019-04-26T01:51:26.651Z,87.60
2019-04-26T01:53:30.779Z,87.10
2019-04-26T01:55:35.708Z,86.50
2019-04-26T01:57:41.199Z,88.10
2019-04-26T01:59:51.009Z,87.90
2019-04-26T02:02:21.277Z,88.40
2019-04-26T02:04:30.473Z,88.20
2019-04-26T02:06:35.314Z,89.20
2019-04-26T02:08:39.391Z,89.30
2019-04-26T02:10:43.462Z,89.50
2019-04-26T02:12:48.859Z,89.70
2019-04-26T02:14:52.873Z,88.50
2019-04-26T02:17:01.037Z,88.10
2019-04-26T02:19:05.695Z,87.90
2019-04-26T02:21:30.218Z,88.00
2019-04-26T02:23:43.392Z,88.70
2019-04-26T02:25:51.564Z,88.40
2019-04-26T02:27:55.568Z,88.90
2019-04-26T02:30:00.898Z,88.80
2019-04-26T02:32:07.822Z,88.30
2019-04-26T02:34:12.753Z,88.90
2019-04-26T02:36:16.924Z,90.00
2019-04-26T02:38:21.160Z,90.00
2019-04-26T02:40:26.112Z,90.00
2019-04-26T02:42:42.646Z,89.50
2019-04-26T02:44:56.519Z,90.00
2019-04-26T02:47:39.031Z,90.00
2019-04-26T02:49:47.278Z,90.40
2019-04-26T02:52:19.759Z,90.70
2019-04-26T02:54:47.886Z,90.60
2019-04-26T02:56:54.852Z,90.60
2019-04-26T02:59:37.731Z,91.00
2019-04-26T03:01:41.938Z,91.30
2019-04-26T03:03:46.206Z,90.70
2019-04-26T03:05:51.208Z,91.40
2019-04-26T03:08:03.072Z,91.10
2019-04-26T03:10:09.081Z,91.70
2019-04-26T03:12:17.192Z,91.70
2019-04-26T03:14:42.176Z,91.70
2019-04-26T03:16:59.533Z,91.70
2019-04-26T03:19:23.834Z,92.10
2019-04-26T03:21:56.859Z,91.80
2019-04-26T03:24:17.855Z,91.70
2019-04-26T03:26:47.087Z,91.80
2019-04-26T03:29:23.143Z,91.80
2019-04-26T03:31:53.568Z,91.50
2019-04-26T03:34:03.186Z,92.40
2019-04-26T03:36:28.487Z,91.90
2019-04-26T03:38:43.609Z,92.10
2019-04-26T03:40:59.640Z,92.70
2019-04-26T03:43:36.848Z,92.50
2019-04-26T03:45:53.514Z,92.90
2019-04-26T03:48:12.325Z,93.20
2019-04-26T03:50:26.379Z,92.90
2019-04-26T03:52:49.811Z,93.00
2019-04-26T03:54:57.788Z,92.70
2019-04-26T03:57:16.958Z,92.40
2019-04-26T03:59:38.319Z,92.60
2019-04-26T04:01:51.419Z,92.70
2019-04-26T04:03:59.813Z,92.60
2019-04-26T04:06:07.343Z,92.90
2019-04-26T04:08:16.752Z,92.90
2019-04-26T04:10:25.711Z,93.20
2019-04-26T04:13:43.292Z,93.10
2019-04-26T04:15:48.636Z,93.00
2019-04-26T04:18:01.520Z,93.10
2019-04-26T04:20:55.684Z,93.30
2019-04-26T04:23:39.806Z,93.20
2019-04-26T04:25:49.254Z,93.30
2019-04-26T04:28:12.747Z,93.40
2019-04-26T04:30:26.026Z,93.10
2019-04-26T04:32:41.893Z,93.20
2019-04-26T04:34:49.731Z,93.50
2019-04-26T04:36:56.773Z,93.70
2019-04-26T04:39:22.348Z,93.90
2019-04-26T04:41:43.007Z,94.00
2019-04-26T04:43:59.601Z,94.00
2019-04-26T04:46:57.331Z,93.60
2019-04-26T04:49:19.558Z,93.80
2019-04-26T04:51:57.658Z,94.20
2019-04-26T04:54:13.945Z,94.20
2019-04-26T04:56:52.656Z,94.10
2019-04-26T04:59:00.576Z,94.10
2019-04-26T05:01:50.379Z,94.20
2019-04-26T05:04:10.091Z,94.40
2019-04-26T05:06:47.044Z,94.40
2019-04-26T05:09:11.052Z,94.40
2019-04-26T05:11:32.392Z,94.70
2019-04-26T05:13:46.268Z,95.10
2019-04-26T05:16:28.759Z,95.40
2019-04-26T05:18:59.109Z,95.10
2019-04-26T05:21:43.114Z,95.80
2019-04-26T05:24:17.125Z,95.80
2019-04-26T05:27:03.715Z,95.90
2019-04-26T05:29:56.239Z,96.40
2019-04-26T05:32:12.540Z,96.40
2019-04-26T05:34:36.752Z,95.90
2019-04-26T05:37:04.494Z,96.20
2019-04-26T05:39:17.056Z,96.70
2019-04-26T05:41:49.569Z,97.30
2019-04-26T05:44:31.739Z,97.50
2019-04-26T05:47:28.363Z,97.50
2019-04-26T05:50:17.981Z,97.80
2019-04-26T05:53:07.837Z,97.20
2019-04-26T05:55:43.375Z,97.60
2019-04-26T05:58:24.920Z,97.50
2019-04-26T06:01:16.768Z,97.40
2019-04-26T06:04:10.453Z,97.70
2019-04-26T06:06:28.122Z,97.00
2019-04-26T06:09:01.624Z,96.70
2019-04-26T06:11:14.487Z,96.80
2019-04-26T06:13:49.135Z,97.60
2019-04-26T06:16:05.122Z,98.30
2019-04-26T06:18:33.039Z,98.70
2019-04-26T06:21:11.350Z,98.70
2019-04-26T06:23:29.603Z,98.90
2019-04-26T06:25:48.783Z,99.60
2019-04-26T06:28:02.735Z,99.90
2019-04-26T06:30:18.960Z,99.90
2019-04-26T06:32:56.583Z,99.90
2019-04-26T06:35:19.989Z,99.90
2019-04-26T06:37:33.920Z,99.90
2019-04-26T06:40:05.671Z,99.90
2019-04-26T06:42:27.183Z,99.90
2019-04-26T06:44:52.787Z,99.90
2019-04-26T06:47:19.802Z,99.80
2019-04-26T06:50:15.478Z,99.80
2019-04-26T06:52:23.043Z,99.80
2019-04-26T06:54:53.462Z,99.90
2019-04-26T06:57:27.285Z,99.30
2019-04-26T06:59:48.478Z,99.60
2019-04-26T07:02:00.981Z,99.20
2019-04-26T07:04:33.077Z,99.20
2019-04-26T07:06:44.297Z,99.10
2019-04-26T07:08:57.826Z,98.80
2019-04-26T07:11:25.340Z,99.30
2019-04-26T07:13:52.054Z,99.70
2019-04-26T07:16:19.753Z,99.90
2019-04-26T07:18:26.979Z,99.90
2019-04-26T07:20:53.334Z,99.90
2019-04-26T07:23:44.092Z,99.90
2019-04-26T07:26:41.599Z,99.90
2019-04-26T07:29:29.642Z,99.90
2019-04-26T07:31:52.376Z,99.90
2019-04-26T07:34:27.743Z,99.90
2019-04-26T07:37:31.096Z,99.90
2019-04-26T07:40:13.842Z,99.90
2019-04-26T07:43:03.240Z,99.90
2019-04-26T07:45:37.835Z,99.90
2019-04-26T07:48:18.413Z,99.90
2019-04-26T07:50:49.487Z,99.90
2019-04-26T07:53:29.810Z,99.90
2019-04-26T07:55:49.543Z,99.90
2019-04-26T07:58:22.303Z,99.90
2019-04-26T08:00:53.192Z,99.90
2019-04-26T08:03:10.830Z,99.90
2019-04-26T08:05:22.760Z,99.90
2019-04-26T08:07:30.392Z,99.90
2019-04-26T08:09:37.388Z,99.90
2019-04-26T08:11:52.747Z,99.90
2019-04-26T08:14:13.226Z,99.90
2019-04-26T08:16:29.595Z,99.90
2019-04-26T08:18:47.822Z,99.90
2019-04-26T08:21:16.944Z,99.90
2019-04-26T08:23:39.594Z,99.90
2019-04-26T08:25:36.987Z,99.90
2019-04-26T08:27:42.855Z,99.90
2019-04-26T08:29:50.484Z,99.90
2019-04-26T08:31:58.830Z,99.90
2019-04-26T08:34:08.704Z,99.90
2019-04-26T08:36:16.250Z,99.90
2019-04-26T08:38:22.835Z,99.90
2019-04-26T08:40:36.800Z,99.90
2019-04-26T08:42:49.663Z,99.90
2019-04-26T08:45:10.358Z,99.90
2019-04-26T08:47:24.367Z,99.90
2019-04-26T08:49:35.046Z,99.90
2019-04-26T08:51:42.494Z,99.90
2019-04-26T08:53:49.641Z,99.90
2019-04-26T08:55:56.682Z,99.90
2019-04-26T08:58:05.769Z,99.90
2019-04-26T09:00:23.747Z,99.90
2019-04-26T09:02:52.999Z,99.90
2019-04-26T09:05:12.652Z,99.90
2019-04-26T09:07:22.284Z,99.90
2019-04-26T09:09:29.502Z,99.90
2019-04-26T09:11:35.526Z,99.90
2019-04-26T09:13:43.538Z,99.90
2019-04-26T09:16:25.631Z,99.90
2019-04-26T09:18:42.032Z,99.90
2019-04-26T09:20:38.568Z,99.90
2019-04-26T09:23:12.261Z,99.90
2019-04-26T09:25:30.288Z,99.90
2019-04-26T09:27:51.621Z,99.90
2019-04-26T09:30:09.328Z,99.90
2019-04-26T09:32:18.869Z,99.90
2019-04-26T09:34:23.108Z,99.90
2019-04-26T09:36:27.059Z,99.90
2019-04-26T09:38:30.894Z,99.90
2019-04-26T09:40:34.875Z,99.90
2019-04-26T09:42:51.108Z,99.90
2019-04-26T09:45:22.584Z,99.90
2019-04-26T09:47:30.896Z,99.90
2019-04-26T09:49:41.156Z,99.90
2019-04-26T09:51:45.238Z,99.90
2019-04-26T09:53:50.804Z,99.90
2019-04-26T09:55:55.182Z,99.90
2019-04-26T09:57:59.439Z,99.90
2019-04-26T10:00:10.367Z,99.90
2019-04-26T10:02:13.241Z,99.90
2019-04-26T10:04:17.576Z,99.90
2019-04-26T10:06:21.567Z,99.90
2019-04-26T10:08:25.646Z,99.90
2019-04-26T10:10:35.302Z,99.90
2019-04-26T10:13:08.908Z,99.90
2019-04-26T10:15:26.817Z,99.90
2019-04-26T10:17:36.796Z,99.90
2019-04-26T10:19:48.359Z,99.90
2019-04-26T10:21:53.304Z,99.90
2019-04-26T10:23:57.186Z,99.90
2019-04-26T10:26:01.212Z,99.90
2019-04-26T10:28:05.420Z,99.90
2019-04-26T10:30:11.565Z,99.90
2019-04-26T10:32:16.031Z,99.90
2019-04-26T10:34:20.212Z,99.90
2019-04-26T10:36:30.006Z,99.90
2019-04-26T10:38:33.346Z,99.90
2019-04-26T10:40:40.044Z,99.90
2019-04-26T10:42:43.875Z,99.90
2019-04-26T10:44:47.786Z,99.90
2019-04-26T10:46:55.633Z,99.90
2019-04-26T10:49:08.217Z,99.90
2019-04-26T10:51:06.997Z,99.90
2019-04-26T10:53:35.392Z,99.90
2019-04-26T10:56:04.394Z,99.90
2019-04-26T10:58:22.659Z,99.90
2019-04-26T11:00:32.696Z,99.90
2019-04-26T11:02:37.471Z,99.90
2019-04-26T11:04:42.932Z,99.90
2019-04-26T11:06:47.100Z,99.90
2019-04-26T11:08:51.008Z,99.90
2019-04-26T11:10:55.358Z,99.90
2019-04-26T11:13:00.190Z,99.90
2019-04-26T11:15:06.263Z,99.90
2019-04-26T11:17:16.034Z,99.90
2019-04-26T11:19:17.772Z,99.90
2019-04-26T11:21:26.620Z,99.90
2019-04-26T11:23:30.454Z,99.90
2019-04-26T11:25:34.723Z,99.90
2019-04-26T11:27:40.210Z,99.90
2019-04-26T11:29:53.582Z,99.90
2019-04-26T11:31:50.668Z,99.90
2019-04-26T11:34:04.699Z,99.90
2019-04-26T11:36:03.329Z,99.90
2019-04-26T11:38:07.223Z,99.90
2019-04-26T11:40:14.664Z,99.90
2019-04-26T11:42:18.712Z,99.90
2019-04-26T11:44:27.529Z,99.90
2019-04-26T11:46:30.528Z,99.90
2019-04-26T11:48:34.728Z,99.90
2019-04-26T11:50:38.983Z,99.90
2019-04-26T11:52:42.949Z,99.90
2019-04-26T11:54:46.892Z,99.90
2019-04-26T11:56:51.343Z,99.90
2019-04-26T11:58:56.900Z,99.90
2019-04-26T12:01:03.324Z,99.90
2019-04-26T12:03:07.280Z,99.90
2019-04-26T12:05:33.362Z,99.90
2019-04-26T12:07:42.848Z,99.90
2019-04-26T12:09:48.013Z,99.90
2019-04-26T12:12:04.044Z,99.90
2019-04-26T12:14:00.351Z,99.90
2019-04-26T12:16:04.667Z,99.90
2019-04-26T12:18:09.648Z,99.90
2019-04-26T12:20:14.416Z,99.90
2019-04-26T12:22:18.491Z,99.90
2019-04-26T12:24:25.404Z,99.90
2019-04-26T12:26:28.310Z,99.90
2019-04-26T12:28:32.304Z,99.50
2019-04-26T12:30:36.199Z,99.40
2019-04-26T12:32:40.145Z,99.30
2019-04-26T12:34:44.022Z,98.20
2019-04-26T12:36:48.232Z,98.30
2019-04-26T12:38:52.140Z,98.20
2019-04-26T12:40:56.375Z,98.30
2019-04-26T12:43:00.488Z,98.30
2019-04-26T12:45:16.652Z,97.50
2019-04-26T12:47:26.436Z,97.10
2019-04-26T12:49:30.528Z,98.30
2019-04-26T12:51:35.029Z,99.90
2019-04-26T12:53:40.711Z,99.90
2019-04-26T12:55:44.677Z,99.90
2019-04-26T12:57:48.636Z,99.90
2019-04-26T12:59:52.589Z,99.90
2019-04-26T13:02:05.404Z,99.90
2019-04-26T13:04:06.073Z,99.90
2019-04-26T13:06:10.269Z,99.90
2019-04-26T13:08:16.898Z,99.90
2019-04-26T13:10:45.002Z,99.90
2019-04-26T13:12:58.269Z,99.90
2019-04-26T13:15:55.989Z,99.90
2019-04-26T13:18:00.272Z,99.90
2019-04-26T13:20:04.943Z,99.90
2019-04-26T13:22:12.479Z,99.90
2019-04-26T13:24:14.857Z,99.90
2019-04-26T13:26:18.840Z,99.90
2019-04-26T13:28:22.799Z,99.90
2019-04-26T13:30:32.754Z,99.90
2019-04-26T13:32:32.439Z,99.90
2019-04-26T13:34:37.213Z,99.50
2019-04-26T13:36:42.482Z,99.50
2019-04-26T13:38:46.459Z,99.20
2019-04-26T13:40:50.838Z,99.80
2019-04-26T13:42:54.728Z,99.90
2019-04-26T13:45:20.860Z,99.90
2019-04-26T13:47:41.397Z,99.90
2019-04-26T13:49:54.515Z,99.90
2019-04-26T13:51:58.735Z,99.90
2019-04-26T13:54:02.668Z,99.90
2019-04-26T13:56:06.823Z,99.90
2019-04-26T13:58:10.712Z,99.90
2019-04-26T14:00:22.113Z,99.90
2019-04-26T14:02:26.132Z,99.90
2019-04-26T14:04:29.998Z,99.90
2019-04-26T14:06:33.907Z,99.90
2019-04-26T14:08:37.878Z,99.90
2019-04-26T14:10:41.763Z,99.90
2019-04-26T14:12:46.169Z,99.90
2019-04-26T14:14:51.464Z,99.90
2019-04-26T14:16:55.775Z,99.90
2019-04-26T14:19:01.099Z,99.90
2019-04-26T14:21:05.056Z,99.90
2019-04-26T14:23:27.995Z,99.90
2019-04-26T14:25:42.992Z,99.90
2019-04-26T14:27:49.950Z,99.90
2019-04-26T14:29:54.520Z,99.90
2019-04-26T14:31:58.723Z,99.90
2019-04-26T14:34:05.403Z,99.90
2019-04-26T14:36:17.609Z,99.90
2019-04-26T14:38:27.082Z,99.90
2019-04-26T14:40:21.355Z,99.90
2019-04-26T14:42:33.574Z,99.90
2019-04-26T14:44:34.746Z,99.90
2019-04-26T14:46:48.578Z,99.90
2019-04-26T14:49:00.641Z,99.90
2019-04-26T14:50:53.304Z,99.90
2019-04-26T14:52:58.234Z,99.90
2019-04-26T14:55:02.762Z,99.90
2019-04-26T14:57:10.337Z,99.90
2019-04-26T14:59:12.449Z,99.90
2019-04-26T15:01:35.289Z,99.90
2019-04-26T15:03:58.531Z,99.90
2019-04-26T15:06:22.242Z,99.90
2019-04-26T15:08:26.900Z,99.90
2019-04-26T15:10:45.760Z,99.90
2019-04-26T15:12:46.921Z,99.90
2019-04-26T15:14:49.343Z,99.90
2019-04-26T15:16:54.958Z,99.90
2019-04-26T15:18:59.508Z,99.90
2019-04-26T15:21:04.536Z,99.90
2019-04-26T15:23:08.838Z,99.90
2019-04-26T15:25:13.180Z,99.90
2019-04-26T15:27:17.227Z,99.90
2019-04-26T15:29:26.752Z,99.90
2019-04-26T15:31:27.240Z,99.60
2019-04-26T15:33:32.527Z,98.90
2019-04-26T15:35:37.161Z,98.60
2019-04-26T15:37:42.280Z,98.60
2019-04-26T15:39:58.314Z,98.80
2019-04-26T15:42:23.788Z,98.80
2019-04-26T15:45:01.666Z,99.50
2019-04-26T15:47:28.476Z,99.70
2019-04-26T15:49:46.977Z,99.90
2019-04-26T15:51:51.559Z,99.90
2019-04-26T15:53:55.675Z,99.90
2019-04-26T15:56:00.083Z,99.90
2019-04-26T15:58:08.539Z,99.80
2019-04-26T16:00:10.291Z,99.90
2019-04-26T16:02:14.480Z,99.90
2019-04-26T16:04:18.605Z,99.90
2019-04-26T16:06:23.680Z,99.90
2019-04-26T16:08:28.129Z,99.90
2019-04-26T16:10:38.286Z,99.90
2019-04-26T16:12:42.252Z,99.90
2019-04-26T16:14:46.551Z,99.90
2019-04-26T16:16:52.364Z,99.90
2019-04-26T16:18:57.248Z,99.90
2019-04-26T16:21:01.980Z,99.90
2019-04-26T16:23:07.519Z,99.90
2019-04-26T16:25:12.173Z,99.70
2019-04-26T16:27:16.209Z,99.60
2019-04-26T16:29:39.835Z,99.60
2019-04-26T16:32:02.907Z,99.70
2019-04-26T16:34:10.800Z,99.90
2019-04-26T16:36:15.999Z,99.80
2019-04-26T16:38:36.139Z,99.90
2019-04-26T16:40:47.556Z,99.90
2019-04-26T16:42:49.855Z,99.90
2019-04-26T16:44:53.158Z,99.90
2019-04-26T16:47:01.714Z,99.90
2019-04-26T16:49:05.877Z,99.90
2019-04-26T16:51:10.914Z,99.90
2019-04-26T16:53:42.582Z,99.90
2019-04-26T16:55:24.723Z,99.90
2019-04-26T16:57:28.536Z,99.90
2019-04-26T16:59:32.937Z,99.90
2019-04-26T17:01:38.108Z,99.90
2019-04-26T17:03:45.213Z,99.90
2019-04-26T17:05:51.997Z,99.90
2019-04-26T17:07:58.812Z,99.90
2019-04-26T17:10:00.136Z,99.90
2019-04-26T17:12:04.595Z,99.90
2019-04-26T17:14:10.317Z,99.90
2019-04-26T17:16:14.228Z,99.90
2019-04-26T17:18:19.411Z,99.90
2019-04-26T17:20:23.876Z,99.90
2019-04-26T17:22:44.369Z,99.90
2019-04-26T17:24:53.466Z,99.90
2019-04-26T17:27:05.328Z,99.90
2019-04-26T17:29:08.529Z,99.90
2019-04-26T17:31:12.582Z,99.90
2019-04-26T17:33:16.515Z,99.90
2019-04-26T17:35:20.745Z,99.90
2019-04-26T17:37:26.482Z,99.90
2019-04-26T17:39:30.445Z,99.90
2019-04-26T17:41:34.709Z,99.90
2019-04-26T17:43:42.273Z,99.90
2019-04-26T17:45:44.326Z,99.90
2019-04-26T17:47:48.379Z,99.90
2019-04-26T17:49:52.532Z,99.90
2019-04-26T17:51:57.999Z,99.90
2019-04-26T17:54:21.298Z,99.90
2019-04-26T17:56:08.132Z,99.90
2019-04-26T17:58:17.197Z,99.90
2019-04-26T18:00:26.724Z,99.90
2019-04-26T18:02:41.218Z,99.90
2019-04-26T18:04:36.890Z,99.90
2019-04-26T18:06:38.076Z,99.90
2019-04-26T18:08:51.732Z,99.90
2019-04-26T18:10:47.798Z,99.90
2019-04-26T18:12:52.399Z,99.90
2019-04-26T18:14:56.315Z,99.90
2019-04-26T18:17:10.208Z,99.90
2019-04-26T18:19:30.540Z,99.90
2019-04-26T18:21:56.110Z,99.90
2019-04-26T18:23:58.811Z,99.90
2019-04-26T18:26:03.286Z,99.90
2019-04-26T18:28:08.706Z,99.90
2019-04-26T18:30:14.333Z,99.90
2019-04-26T18:32:18.907Z,99.90
2019-04-26T18:34:25.933Z,99.90
2019-04-26T18:36:32.009Z,99.90
2019-04-26T18:38:35.635Z,99.90
2019-04-26T18:40:57.208Z,99.90
2019-04-26T18:42:45.570Z,99.90
2019-04-26T18:44:49.484Z,99.90
2019-04-26T18:46:58.759Z,99.90
2019-04-26T18:49:04.358Z,99.90
2019-04-26T18:51:11.203Z,99.90
2019-04-26T18:53:36.729Z,99.90
2019-04-26T18:55:37.904Z,99.90
2019-04-26T18:57:43.046Z,99.90
2019-04-26T18:59:51.379Z,99.90
2019-04-26T19:01:53.537Z,99.90
2019-04-26T19:04:00.607Z,99.90
2019-04-26T19:06:05.568Z,99.90
2019-04-26T19:08:09.950Z,99.90
2019-04-26T19:10:14.917Z,99.90
2019-04-26T19:12:23.401Z,99.90
2019-04-26T19:14:48.560Z,99.90
2019-04-26T19:17:02.036Z,99.90
2019-04-26T19:19:15.365Z,99.90
2019-04-26T19:21:24.763Z,99.90
2019-04-26T19:23:30.002Z,99.90
2019-04-26T19:25:38.679Z,99.90
2019-04-26T19:27:48.213Z,99.90
2019-04-26T19:29:46.781Z,99.90
2019-04-26T19:31:56.527Z,99.90
2019-04-26T19:34:02.724Z,99.90
2019-04-26T19:36:07.649Z,99.90
2019-04-26T19:38:14.643Z,99.90
2019-04-26T19:40:17.625Z,99.90
2019-04-26T19:42:21.980Z,99.90
2019-04-26T19:44:26.053Z,99.90
2019-04-26T19:47:02.452Z,99.90
2019-04-26T19:49:41.772Z,99.90
2019-04-26T19:52:09.716Z,99.90
2019-04-26T19:54:21.482Z,99.90
2019-04-26T19:56:37.007Z,99.90
2019-04-26T19:58:42.118Z,99.90
2019-04-26T20:00:46.885Z,99.90
2019-04-26T20:02:52.362Z,99.90
2019-04-26T20:04:56.671Z,99.90
2019-04-26T20:07:01.936Z,99.90
2019-04-26T20:09:07.275Z,99.90
2019-04-26T20:11:12.861Z,99.90
2019-04-26T20:13:17.258Z,99.90
2019-04-26T20:15:27.963Z,99.90
2019-04-26T20:17:27.234Z,99.90
2019-04-26T20:19:37.073Z,99.90
2019-04-26T20:21:37.333Z,99.90
2019-04-26T20:23:47.057Z,99.90
2019-04-26T20:25:48.621Z,99.90
2019-04-26T20:27:53.694Z,99.90
2019-04-26T20:29:58.890Z,99.90
2019-04-26T20:32:21.151Z,99.90
2019-04-26T20:34:25.292Z,99.90
2019-04-26T20:36:33.723Z,99.90
2019-04-26T20:38:43.784Z,99.90
2019-04-26T20:40:43.558Z,99.90
2019-04-26T20:42:47.899Z,99.90
2019-04-26T20:44:53.769Z,99.90
2019-04-26T20:46:57.998Z,99.90
2019-04-26T20:49:07.905Z,99.90
2019-04-26T20:51:10.844Z,99.90
2019-04-26T20:53:16.144Z,99.90
2019-04-26T20:55:25.261Z,99.90
2019-04-26T20:57:30.660Z,99.90
2019-04-26T20:59:32.139Z,99.90
2019-04-26T21:01:36.533Z,99.90
2019-04-26T21:03:42.853Z,99.90
2019-04-26T21:05:50.476Z,99.90
2019-04-26T21:07:52.502Z,99.90
2019-04-26T21:09:56.851Z,99.90
2019-04-26T21:12:01.883Z,99.90
2019-04-26T21:14:07.635Z,99.90
2019-04-26T21:16:15.359Z,99.90
2019-04-26T21:18:17.755Z,99.90
2019-04-26T21:20:27.644Z,99.90
2019-04-26T21:22:28.876Z,99.90
2019-04-26T21:24:36.830Z,99.90
2019-04-26T21:27:06.214Z,99.90
2019-04-26T21:29:34.491Z,99.90
2019-04-26T21:31:47.155Z,99.90
2019-04-26T21:34:16.545Z,99.90
2019-04-26T21:36:34.691Z,99.90
2019-04-26T21:38:43.945Z,99.90
2019-04-26T21:40:55.379Z,99.90
2019-04-26T21:42:59.505Z,99.90
2019-04-26T21:45:05.726Z,99.90
2019-04-26T21:47:09.785Z,99.90
2019-04-26T21:49:20.615Z,99.90
2019-04-26T21:51:19.543Z,99.90
2019-04-26T21:53:23.974Z,99.90
2019-04-26T21:55:35.266Z,99.90
2019-04-26T21:57:35.026Z,99.90
2019-04-26T21:59:42.176Z,99.90
2019-04-26T22:01:48.175Z,99.90
2019-04-26T22:03:55.491Z,99.90
2019-04-26T22:05:57.047Z,99.90
2019-04-26T22:08:01.232Z,99.90
2019-04-26T22:10:24.525Z,99.90
2019-04-26T22:12:31.242Z,99.90
2019-04-26T22:14:34.900Z,99.90
2019-04-26T22:16:57.466Z,99.90
2019-04-26T22:19:23.567Z,99.90
2019-04-26T22:21:36.048Z,99.90
2019-04-26T22:23:47.580Z,99.90
2019-04-26T22:25:54.048Z,99.90
2019-04-26T22:28:00.461Z,99.90
2019-04-26T22:30:07.110Z,99.90
2019-04-26T22:32:15.062Z,99.90
2019-04-26T22:34:17.144Z,99.90
2019-04-26T22:36:21.215Z,99.90
2019-04-26T22:38:26.837Z,99.90
2019-04-26T22:40:31.103Z,99.90
2019-04-26T22:42:41.510Z,99.90
2019-04-26T22:44:51.728Z,99.90
2019-04-26T22:47:14.064Z,99.90
2019-04-26T22:49:18.423Z,99.90
2019-04-26T22:51:23.146Z,99.90
2019-04-26T22:53:27.522Z,99.90
2019-04-26T22:55:33.303Z,99.90
2019-04-26T22:57:37.243Z,99.90
2019-04-26T22:59:43.255Z,99.90
2019-04-26T23:01:48.743Z,99.90
2019-04-26T23:03:53.234Z,99.90
2019-04-26T23:05:57.597Z,99.90
2019-04-26T23:08:03.208Z,99.90
2019-04-26T23:10:08.933Z,99.90
2019-04-26T23:12:29.291Z,99.90
2019-04-26T23:14:55.458Z,99.90
2019-04-26T23:17:17.239Z,99.90
2019-04-26T23:19:35.995Z,99.90
2019-04-26T23:21:45.468Z,99.90
2019-04-26T23:23:48.511Z,99.90
2019-04-26T23:25:52.513Z,99.90
2019-04-26T23:27:58.264Z,99.90
2019-04-26T23:30:03.768Z,99.90
2019-04-26T23:32:12.141Z,99.90
2019-04-26T23:34:14.249Z,99.90
2019-04-26T23:36:19.602Z,99.90
2019-04-26T23:38:23.851Z,99.90
2019-04-26T23:40:29.009Z,99.90
2019-04-26T23:42:33.187Z,99.90
2019-04-26T23:44:40.148Z,99.90
2019-04-26T23:46:44.375Z,99.90
2019-04-26T23:48:49.680Z,99.90
2019-04-26T23:50:53.943Z,99.90
2019-04-26T23:52:57.869Z,99.90
2019-04-26T23:55:07.225Z,99.90
2019-04-26T23:57:07.443Z,99.90
2019-04-26T23:59:16.498Z,99.90
